createdAt,value
2019-05-25T00:00:11.026Z,12.10
2019-05-25T00:02:40.419Z,12.00
2019-05-25T00:05:10.126Z,11.90
2019-05-25T00:07:40.698Z,11.90
2019-05-25T00:10:10.159Z,11.80
2019-05-25T00:12:39.467Z,11.80
2019-05-25T00:15:09.536Z,11.80
2019-05-25T00:17:39.393Z,11.80
2019-05-25T00:20:08.909Z,11.80
2019-05-25T00:22:38.262Z,11.80
2019-05-25T00:25:07.718Z,11.90
2019-05-25T00:27:37.018Z,11.90
2019-05-25T00:30:08.181Z,12.00
2019-05-25T00:32:38.666Z,11.90
2019-05-25T00:35:08.178Z,11.90
2019-05-25T00:37:37.483Z,11.80
2019-05-25T00:40:07.299Z,11.80
2019-05-25T00:42:36.615Z,11.70
2019-05-25T00:45:06.560Z,11.70
2019-05-25T00:47:35.924Z,11.60
2019-05-25T00:50:07.253Z,11.50
2019-05-25T00:52:36.572Z,11.40
2019-05-25T00:55:08.699Z,11.30
2019-05-25T00:57:38.978Z,11.20
2019-05-25T01:00:08.750Z,11.30
2019-05-25T01:02:40.023Z,11.30
2019-05-25T01:05:09.974Z,11.30
2019-05-25T01:07:39.305Z,11.30
2019-05-25T01:10:10.822Z,11.30
2019-05-25T01:12:40.129Z,11.20
2019-05-25T01:15:10.389Z,11.10
2019-05-25T01:17:39.858Z,11.10
2019-05-25T01:20:10.406Z,11.00
2019-05-25T01:22:40.082Z,10.90
2019-05-25T01:25:09.818Z,10.90
2019-05-25T01:27:40.491Z,10.80
2019-05-25T01:30:11.513Z,10.80
2019-05-25T01:32:40.832Z,10.70
2019-05-25T01:35:10.471Z,10.70
2019-05-25T01:37:39.807Z,10.70
2019-05-25T01:40:09.818Z,10.70
2019-05-25T01:42:39.120Z,10.60
2019-05-25T01:45:10.094Z,10.70
2019-05-25T01:47:39.396Z,10.60
2019-05-25T01:50:09.250Z,10.50
2019-05-25T01:52:39.611Z,10.50
2019-05-25T01:55:09.347Z,10.40
2019-05-25T01:57:38.660Z,10.40
2019-05-25T02:00:08.971Z,10.30
2019-05-25T02:02:38.264Z,10.20
2019-05-25T02:05:08.414Z,10.20
2019-05-25T02:07:37.712Z,10.20
2019-05-25T02:10:09.194Z,10.20
2019-05-25T02:12:38.493Z,10.10
2019-05-25T02:15:09.028Z,10.20
2019-05-25T02:17:38.330Z,10.10
2019-05-25T02:20:09.098Z,10.00
2019-05-25T02:22:39.426Z,9.90
2019-05-25T02:25:17.581Z,9.90
2019-05-25T02:27:41.585Z,9.90
2019-05-25T02:30:12.427Z,9.90
2019-05-25T02:32:41.804Z,9.90
2019-05-25T02:35:14.172Z,9.80
2019-05-25T02:37:44.098Z,9.90
2019-05-25T02:40:13.403Z,9.80
2019-05-25T02:42:42.708Z,9.80
2019-05-25T02:45:12.074Z,9.70
2019-05-25T02:47:41.378Z,9.60
2019-05-25T02:50:10.936Z,9.50
2019-05-25T02:52:40.226Z,9.50
2019-05-25T02:55:12.397Z,9.40
2019-05-25T02:57:41.693Z,9.40
2019-05-25T03:00:12.845Z,9.40
2019-05-25T03:02:42.205Z,9.30
2019-05-25T03:05:14.600Z,9.30
2019-05-25T03:07:45.520Z,9.30
2019-05-25T03:10:15.892Z,9.20
2019-05-25T03:12:45.559Z,9.20
2019-05-25T03:15:15.990Z,9.10
2019-05-25T03:17:45.285Z,9.10
2019-05-25T03:20:15.036Z,9.10
2019-05-25T03:22:44.392Z,9.10
2019-05-25T03:25:14.029Z,9.00
2019-05-25T03:27:44.720Z,9.00
2019-05-25T03:30:14.462Z,9.00
2019-05-25T03:32:43.749Z,8.90
2019-05-25T03:35:13.287Z,8.90
2019-05-25T03:37:42.633Z,8.90
2019-05-25T03:40:13.036Z,8.90
2019-05-25T03:42:42.344Z,8.90
2019-05-25T03:45:11.928Z,8.90
2019-05-25T03:47:41.238Z,8.90
2019-05-25T03:50:11.750Z,9.00
2019-05-25T03:52:41.052Z,9.00
2019-05-25T03:55:10.419Z,9.10
2019-05-25T03:57:39.721Z,9.30
2019-05-25T04:00:09.566Z,9.30
2019-05-25T04:02:39.739Z,9.40
2019-05-25T04:05:09.230Z,9.40
2019-05-25T04:07:38.527Z,9.50
2019-05-25T04:10:08.203Z,9.50
2019-05-25T04:12:39.152Z,9.60
2019-05-25T04:15:08.588Z,9.70
2019-05-25T04:17:38.019Z,9.70
2019-05-25T04:20:07.747Z,9.80
2019-05-25T04:22:37.693Z,9.90
2019-05-25T04:25:07.329Z,9.90
2019-05-25T04:27:36.620Z,9.90
2019-05-25T04:30:06.759Z,10.00
2019-05-25T04:32:36.073Z,10.00
2019-05-25T04:35:06.235Z,10.00
2019-05-25T04:37:35.604Z,10.00
2019-05-25T04:40:07.745Z,10.00
2019-05-25T04:42:37.140Z,10.10
2019-05-25T04:45:07.392Z,10.00
2019-05-25T04:47:36.687Z,9.90
2019-05-25T04:50:07.533Z,10.00
2019-05-25T04:52:40.735Z,10.00
2019-05-25T04:55:08.495Z,10.10
2019-05-25T04:57:38.285Z,10.30
2019-05-25T05:00:09.124Z,10.40
2019-05-25T05:02:38.426Z,10.60
2019-05-25T05:05:08.076Z,10.80
2019-05-25T05:07:37.378Z,10.80
2019-05-25T05:10:08.037Z,10.80
2019-05-25T05:12:37.341Z,10.80
2019-05-25T05:15:07.385Z,10.80
2019-05-25T05:17:36.768Z,10.90
2019-05-25T05:20:08.717Z,11.00
2019-05-25T05:22:38.064Z,11.10
2019-05-25T05:25:09.366Z,11.30
2019-05-25T05:27:39.307Z,11.20
2019-05-25T05:30:09.649Z,11.30
2019-05-25T05:32:39.018Z,11.30
2019-05-25T05:35:09.832Z,11.40
2019-05-25T05:37:40.877Z,11.50
2019-05-25T05:40:10.643Z,11.60
2019-05-25T05:42:42.955Z,11.70
2019-05-25T05:45:12.512Z,11.80
2019-05-25T05:47:46.343Z,11.80
2019-05-25T05:50:17.216Z,11.70
2019-05-25T05:52:51.484Z,11.70
2019-05-25T05:55:23.892Z,11.80
2019-05-25T05:57:53.187Z,11.50
2019-05-25T06:00:22.654Z,11.40
2019-05-25T06:02:52.030Z,11.50
2019-05-25T06:05:21.333Z,11.40
2019-05-25T06:07:50.906Z,11.60
2019-05-25T06:10:21.836Z,11.70
2019-05-25T06:12:51.670Z,11.90
2019-05-25T06:15:20.973Z,11.90
2019-05-25T06:17:51.277Z,11.80
2019-05-25T06:20:20.646Z,11.70
2019-05-25T06:22:49.958Z,11.60
2019-05-25T06:25:20.261Z,11.50
2019-05-25T06:27:49.602Z,11.50
2019-05-25T06:30:19.608Z,11.50
2019-05-25T06:32:48.912Z,11.60
2019-05-25T06:35:19.332Z,11.70
2019-05-25T06:37:48.643Z,11.70
2019-05-25T06:40:18.475Z,11.80
2019-05-25T06:42:47.785Z,11.80
2019-05-25T06:45:17.527Z,11.90
2019-05-25T06:47:46.836Z,11.80
2019-05-25T06:50:16.691Z,11.70
2019-05-25T06:52:46.001Z,11.60
2019-05-25T06:55:15.301Z,11.80
2019-05-25T06:57:44.609Z,11.90
2019-05-25T07:00:14.147Z,11.90
2019-05-25T07:02:44.349Z,11.80
2019-05-25T07:05:13.985Z,11.90
2019-05-25T07:07:43.289Z,12.10
2019-05-25T07:10:13.064Z,12.30
2019-05-25T07:12:42.369Z,12.30
2019-05-25T07:15:13.859Z,12.30
2019-05-25T07:17:43.165Z,12.30
2019-05-25T07:20:13.248Z,12.30
2019-05-25T07:22:42.557Z,12.10
2019-05-25T07:25:12.130Z,12.00
2019-05-25T07:27:41.432Z,12.10
2019-05-25T07:30:11.348Z,12.30
2019-05-25T07:32:40.695Z,12.30
2019-05-25T07:35:10.332Z,12.30
2019-05-25T07:37:39.633Z,12.20
2019-05-25T07:40:09.555Z,12.00
2019-05-25T07:42:38.969Z,12.10
2019-05-25T07:45:09.019Z,12.10
2019-05-25T07:47:38.330Z,12.10
2019-05-25T07:50:08.889Z,12.10
2019-05-25T07:52:38.193Z,12.00
2019-05-25T07:55:08.036Z,11.90
2019-05-25T07:57:37.637Z,11.80
2019-05-25T08:00:08.378Z,12.00
2019-05-25T08:02:37.705Z,11.90
2019-05-25T08:05:07.936Z,12.20
2019-05-25T08:07:37.246Z,12.20
2019-05-25T08:10:06.943Z,12.20
2019-05-25T08:12:36.260Z,12.20
2019-05-25T08:15:06.112Z,12.40
2019-05-25T08:17:36.754Z,12.40
2019-05-25T08:20:07.216Z,12.50
2019-05-25T08:22:36.516Z,12.50
2019-05-25T08:25:10.429Z,12.60
2019-05-25T08:27:39.750Z,12.60
2019-05-25T08:30:09.497Z,12.60
2019-05-25T08:32:38.807Z,12.80
2019-05-25T08:35:08.445Z,12.90
2019-05-25T08:37:37.764Z,13.00
2019-05-25T08:40:07.673Z,13.00
2019-05-25T08:42:36.970Z,13.20
2019-05-25T08:45:09.800Z,13.40
2019-05-25T08:47:39.104Z,13.40
2019-05-25T08:50:10.117Z,13.40
2019-05-25T08:52:39.456Z,13.30
2019-05-25T08:55:09.092Z,13.40
2019-05-25T08:57:38.444Z,13.50
2019-05-25T09:00:08.818Z,13.70
2019-05-25T09:02:38.116Z,13.70
2019-05-25T09:05:08.137Z,13.50
2019-05-25T09:07:38.456Z,13.30
2019-05-25T09:10:08.696Z,13.20
2019-05-25T09:12:38.001Z,13.20
2019-05-25T09:15:07.840Z,13.20
2019-05-25T09:17:37.169Z,13.30
2019-05-25T09:20:08.248Z,13.50
2019-05-25T09:22:37.552Z,13.50
2019-05-25T09:25:09.134Z,13.50
2019-05-25T09:27:38.509Z,13.50
2019-05-25T09:30:08.859Z,13.40
2019-05-25T09:32:38.228Z,13.30
2019-05-25T09:35:08.274Z,13.40
2019-05-25T09:37:37.589Z,13.30
2019-05-25T09:40:07.433Z,13.30
2019-05-25T09:42:36.908Z,13.30
2019-05-25T09:45:08.958Z,13.40
2019-05-25T09:47:39.322Z,13.50
2019-05-25T09:50:09.291Z,13.70
2019-05-25T09:52:38.585Z,13.60
2019-05-25T09:55:10.006Z,13.70
2019-05-25T09:57:41.668Z,13.80
2019-05-25T10:00:14.269Z,13.40
2019-05-25T10:02:44.108Z,13.20
2019-05-25T10:05:14.401Z,13.30
2019-05-25T10:07:43.699Z,13.30
2019-05-25T10:10:13.640Z,13.20
2019-05-25T10:12:43.033Z,13.20
2019-05-25T10:15:12.478Z,13.30
2019-05-25T10:17:42.763Z,13.40
2019-05-25T10:20:13.607Z,13.40
2019-05-25T10:22:42.910Z,13.40
2019-05-25T10:25:12.469Z,13.50
2019-05-25T10:27:41.771Z,13.60
2019-05-25T10:30:11.615Z,13.50
2019-05-25T10:32:40.940Z,13.30
2019-05-25T10:35:11.749Z,13.20
2019-05-25T10:37:42.100Z,13.40
2019-05-25T10:40:12.058Z,13.50
2019-05-25T10:42:41.364Z,13.50
2019-05-25T10:45:11.113Z,13.60
2019-05-25T10:47:41.383Z,13.80
2019-05-25T10:50:11.231Z,13.80
2019-05-25T10:52:41.356Z,13.80
2019-05-25T10:55:11.413Z,14.00
2019-05-25T10:57:41.331Z,13.90
2019-05-25T11:00:12.065Z,13.90
2019-05-25T11:02:41.381Z,14.20
2019-05-25T11:05:11.333Z,14.70
2019-05-25T11:07:40.631Z,14.90
2019-05-25T11:10:10.379Z,15.10
2019-05-25T11:12:39.695Z,15.00
2019-05-25T11:15:09.326Z,15.10
2019-05-25T11:17:38.626Z,15.10
2019-05-25T11:20:11.768Z,15.10
2019-05-25T11:22:41.073Z,15.10
2019-05-25T11:25:10.808Z,15.10
2019-05-25T11:27:40.103Z,15.30
2019-05-25T11:30:11.317Z,15.50
2019-05-25T11:32:40.611Z,16.60
2019-05-25T11:35:11.139Z,16.60
2019-05-25T11:37:41.729Z,16.40
2019-05-25T11:40:11.664Z,16.40
2019-05-25T11:42:40.965Z,16.40
2019-05-25T11:45:10.532Z,16.50
2019-05-25T11:47:39.841Z,16.00
2019-05-25T11:50:09.601Z,16.00
2019-05-25T11:52:39.137Z,16.50
2019-05-25T11:55:09.528Z,16.50
2019-05-25T11:57:39.799Z,16.30
2019-05-25T12:00:24.385Z,16.70
2019-05-25T12:02:45.002Z,17.50
2019-05-25T12:05:15.562Z,18.10
2019-05-25T12:07:45.158Z,18.10
2019-05-25T12:10:15.181Z,18.40
2019-05-25T12:12:44.485Z,18.70
2019-05-25T12:15:14.118Z,18.50
2019-05-25T12:17:43.439Z,18.90
2019-05-25T12:20:16.140Z,18.80
2019-05-25T12:22:45.453Z,18.80
2019-05-25T12:25:14.808Z,19.30
2019-05-25T12:27:44.110Z,18.80
2019-05-25T12:30:16.821Z,18.20
2019-05-25T12:32:46.117Z,17.70
2019-05-25T12:35:16.960Z,18.40
2019-05-25T12:37:46.262Z,19.60
2019-05-25T12:40:16.766Z,20.40
2019-05-25T12:42:46.204Z,19.80
2019-05-25T12:45:16.413Z,19.00
2019-05-25T12:47:45.718Z,18.30
2019-05-25T12:50:15.643Z,18.30
2019-05-25T12:52:44.947Z,18.00
2019-05-25T12:55:14.242Z,17.80
2019-05-25T12:57:43.540Z,18.40
2019-05-25T13:00:16.224Z,18.80
2019-05-25T13:02:44.296Z,19.70
2019-05-25T13:05:15.579Z,20.00
2019-05-25T13:07:44.882Z,20.70
2019-05-25T13:10:14.523Z,20.90
2019-05-25T13:12:43.842Z,20.80
2019-05-25T13:15:13.383Z,21.00
2019-05-25T13:17:42.715Z,21.30
2019-05-25T13:20:12.083Z,21.50
2019-05-25T13:22:43.462Z,21.70
2019-05-25T13:25:13.077Z,20.80
2019-05-25T13:27:42.428Z,21.20
2019-05-25T13:30:12.170Z,22.10
2019-05-25T13:32:41.468Z,22.30
2019-05-25T13:35:10.976Z,22.00
2019-05-25T13:37:40.271Z,22.20
2019-05-25T13:40:10.119Z,21.50
2019-05-25T13:42:39.425Z,20.90
2019-05-25T13:45:09.689Z,21.50
2019-05-25T13:47:39.078Z,21.90
2019-05-25T13:50:08.916Z,21.80
2019-05-25T13:52:38.220Z,21.80
2019-05-25T13:55:08.155Z,23.00
2019-05-25T13:57:37.450Z,23.10
2019-05-25T14:00:08.537Z,22.80
2019-05-25T14:02:37.850Z,23.50
2019-05-25T14:05:08.560Z,24.50
2019-05-25T14:07:37.853Z,24.20
2019-05-25T14:10:08.860Z,23.40
2019-05-25T14:12:38.224Z,23.80
2019-05-25T14:15:09.348Z,23.30
2019-05-25T14:17:39.395Z,23.60
2019-05-25T14:20:10.127Z,24.50
2019-05-25T14:22:39.454Z,24.10
2019-05-25T14:25:09.684Z,23.60
2019-05-25T14:27:39.049Z,23.30
2019-05-25T14:30:08.932Z,23.60
2019-05-25T14:32:38.235Z,24.20
2019-05-25T14:35:07.872Z,22.90
2019-05-25T14:37:37.184Z,22.60
2019-05-25T14:40:11.265Z,23.60
2019-05-25T14:42:39.602Z,25.10
2019-05-25T14:45:09.533Z,25.90
2019-05-25T14:47:38.934Z,25.50
2019-05-25T14:50:08.805Z,26.30
2019-05-25T14:52:38.134Z,26.30
2019-05-25T14:55:08.370Z,25.90
2019-05-25T14:57:37.670Z,24.40
2019-05-25T15:00:08.692Z,24.30
2019-05-25T15:02:38.004Z,24.50
2019-05-25T15:05:07.545Z,25.00
2019-05-25T15:07:36.891Z,24.70
2019-05-25T15:10:07.555Z,24.60
2019-05-25T15:12:39.101Z,22.60
2019-05-25T15:15:08.946Z,21.30
2019-05-25T15:17:38.289Z,20.70
2019-05-25T15:20:09.805Z,20.00
2019-05-25T15:22:39.101Z,19.50
2019-05-25T15:25:09.169Z,19.30
2019-05-25T15:27:38.470Z,18.90
2019-05-25T15:30:08.312Z,18.80
2019-05-25T15:32:37.644Z,18.80
2019-05-25T15:35:07.980Z,18.90
2019-05-25T15:37:37.307Z,19.10
2019-05-25T15:40:09.308Z,19.10
2019-05-25T15:42:40.503Z,18.80
2019-05-25T15:45:11.217Z,18.50
2019-05-25T15:47:40.524Z,18.40
2019-05-25T15:50:11.474Z,18.60
2019-05-25T15:52:40.769Z,18.20
2019-05-25T15:55:10.800Z,17.80
2019-05-25T15:57:40.088Z,17.50
2019-05-25T16:00:13.699Z,17.60
2019-05-25T16:02:43.374Z,17.90
2019-05-25T16:05:14.477Z,17.80
2019-05-25T16:07:46.975Z,17.70
2019-05-25T16:10:17.028Z,17.60
2019-05-25T16:12:46.336Z,17.80
2019-05-25T16:15:18.716Z,18.10
2019-05-25T16:17:48.032Z,18.20
2019-05-25T16:20:20.425Z,18.10
2019-05-25T16:22:49.833Z,18.00
2019-05-25T16:25:19.885Z,17.70
2019-05-25T16:27:49.181Z,17.70
2019-05-25T16:30:18.549Z,17.60
2019-05-25T16:33:10.753Z,17.40
2019-05-25T16:35:18.868Z,17.20
2019-05-25T16:37:48.549Z,17.00
2019-05-25T16:40:18.219Z,16.90
2019-05-25T16:42:47.520Z,16.90
2019-05-25T16:45:17.175Z,17.00
2019-05-25T16:47:46.544Z,17.30
2019-05-25T16:50:16.543Z,17.50
2019-05-25T16:52:46.045Z,17.60
2019-05-25T16:55:16.818Z,17.60
2019-05-25T16:57:46.869Z,17.30
2019-05-25T17:00:20.186Z,17.20
2019-05-25T17:02:49.484Z,17.10
2019-05-25T17:05:18.784Z,17.00
2019-05-25T17:07:48.084Z,16.90
2019-05-25T17:10:17.461Z,16.80
2019-05-25T17:12:46.764Z,16.70
2019-05-25T17:15:16.128Z,16.70
2019-05-25T17:17:45.876Z,16.60
2019-05-25T17:20:15.453Z,16.40
2019-05-25T17:22:44.763Z,16.30
2019-05-25T17:25:15.571Z,16.30
2019-05-25T17:27:45.669Z,16.30
2019-05-25T17:30:15.804Z,16.50
2019-05-25T17:32:45.106Z,16.60
2019-05-25T17:35:15.513Z,16.70
2019-05-25T17:37:44.812Z,16.60
2019-05-25T17:40:14.837Z,16.60
2019-05-25T17:42:44.136Z,16.50
2019-05-25T17:45:13.980Z,16.50
2019-05-25T17:47:43.300Z,16.40
2019-05-25T17:50:12.744Z,16.40
2019-05-25T17:52:42.089Z,16.40
2019-05-25T17:55:11.537Z,16.30
2019-05-25T17:57:40.839Z,16.40
2019-05-25T18:00:11.164Z,16.30
2019-05-25T18:02:40.468Z,16.20
2019-05-25T18:05:10.909Z,16.00
2019-05-25T18:07:40.214Z,15.90
2019-05-25T18:10:10.077Z,15.80
2019-05-25T18:12:40.068Z,15.80
2019-05-25T18:15:10.320Z,15.70
2019-05-25T18:17:39.625Z,15.70
2019-05-25T18:20:10.389Z,15.60
2019-05-25T18:22:39.783Z,15.50
2019-05-25T18:25:10.124Z,15.50
2019-05-25T18:27:39.423Z,15.40
2019-05-25T18:30:11.961Z,15.30
2019-05-25T18:32:41.257Z,15.20
2019-05-25T18:35:12.474Z,15.30
2019-05-25T18:37:41.778Z,15.20
2019-05-25T18:40:11.320Z,15.10
2019-05-25T18:42:40.632Z,15.10
2019-05-25T18:45:10.144Z,15.00
2019-05-25T18:47:39.457Z,15.00
2019-05-25T18:50:10.269Z,15.00
2019-05-25T18:52:41.472Z,14.90
2019-05-25T18:55:11.388Z,14.80
2019-05-25T18:57:40.688Z,14.80
2019-05-25T19:00:10.642Z,14.70
2019-05-25T19:02:40.004Z,14.60
2019-05-25T19:05:10.858Z,14.60
2019-05-25T19:07:40.161Z,14.50
2019-05-25T19:10:10.513Z,14.40
2019-05-25T19:12:39.816Z,14.40
2019-05-25T19:15:09.772Z,14.40
2019-05-25T19:17:39.224Z,14.30
2019-05-25T19:20:09.534Z,14.20
2019-05-25T19:22:38.879Z,14.20
2019-05-25T19:25:09.021Z,14.10
2019-05-25T19:27:38.314Z,14.00
2019-05-25T19:30:09.261Z,14.00
2019-05-25T19:32:41.261Z,13.90
2019-05-25T19:35:11.128Z,13.80
2019-05-25T19:37:42.430Z,13.70
2019-05-25T19:40:11.983Z,13.60
2019-05-25T19:42:41.288Z,13.50
2019-05-25T19:45:12.446Z,13.40
2019-05-25T19:47:41.748Z,13.30
2019-05-25T19:50:11.596Z,13.20
2019-05-25T19:52:40.912Z,13.20
2019-05-25T19:55:11.452Z,13.10
2019-05-25T19:57:40.762Z,13.00
2019-05-25T20:00:12.073Z,12.90
2019-05-25T20:02:41.382Z,12.80
2019-05-25T20:05:17.033Z,12.80
2019-05-25T20:07:42.241Z,12.70
2019-05-25T20:10:12.199Z,12.60
2019-05-25T20:12:41.499Z,12.60
2019-05-25T20:15:11.247Z,12.60
2019-05-25T20:17:40.629Z,12.50
2019-05-25T20:20:11.658Z,12.40
2019-05-25T20:22:40.964Z,12.20
2019-05-25T20:25:10.510Z,12.20
2019-05-25T20:27:39.843Z,12.10
2019-05-25T20:30:09.695Z,12.00
2019-05-25T20:32:39.125Z,12.00
2019-05-25T20:35:10.174Z,11.90
2019-05-25T20:37:39.472Z,11.70
2019-05-25T20:40:09.841Z,11.60
2019-05-25T20:42:39.457Z,11.40
2019-05-25T20:45:08.846Z,11.30
2019-05-25T20:47:38.240Z,11.30
2019-05-25T20:50:08.595Z,11.30
2019-05-25T20:52:37.902Z,11.20
2019-05-25T20:55:07.733Z,11.20
2019-05-25T20:57:37.032Z,11.20
2019-05-25T21:00:07.347Z,11.10
2019-05-25T21:02:38.213Z,11.10
2019-05-25T21:05:07.888Z,11.00
2019-05-25T21:07:37.318Z,10.90
2019-05-25T21:10:08.193Z,10.90
2019-05-25T21:12:37.664Z,10.90
2019-05-25T21:15:08.006Z,10.90
2019-05-25T21:17:37.347Z,10.90
2019-05-25T21:20:06.924Z,10.80
2019-05-25T21:22:36.221Z,10.80
2019-05-25T21:25:07.450Z,10.70
2019-05-25T21:27:37.825Z,10.70
2019-05-25T21:30:08.848Z,10.70
2019-05-25T21:32:38.160Z,10.60
2019-05-25T21:35:09.108Z,10.60
2019-05-25T21:37:38.421Z,10.50
2019-05-25T21:40:08.675Z,10.40
2019-05-25T21:42:38.040Z,10.30
2019-05-25T21:45:08.287Z,10.30
2019-05-25T21:47:37.619Z,10.30
2019-05-25T21:50:07.774Z,10.20
2019-05-25T21:52:37.354Z,10.20
2019-05-25T21:55:06.912Z,10.10
2019-05-25T21:57:36.346Z,10.10
2019-05-25T22:00:12.984Z,10.10
2019-05-25T22:02:43.831Z,10.10
2019-05-25T22:05:13.482Z,10.00
2019-05-25T22:07:42.785Z,9.90
2019-05-25T22:10:12.303Z,9.90
2019-05-25T22:12:41.622Z,9.80
2019-05-25T22:15:12.024Z,9.70
2019-05-25T22:17:42.926Z,9.60
2019-05-25T22:20:12.871Z,9.50
2019-05-25T22:22:42.164Z,9.50
2019-05-25T22:25:11.803Z,9.50
2019-05-25T22:27:41.116Z,9.50
2019-05-25T22:30:11.164Z,9.40
2019-05-25T22:32:40.481Z,9.40
2019-05-25T22:35:11.328Z,9.40
2019-05-25T22:37:40.634Z,9.40
2019-05-25T22:40:10.472Z,9.40
2019-05-25T22:42:39.777Z,9.30
2019-05-25T22:45:10.021Z,9.20
2019-05-25T22:47:39.326Z,9.10
2019-05-25T22:50:09.381Z,9.10
2019-05-25T22:52:38.685Z,9.10
2019-05-25T22:55:08.920Z,9.00
2019-05-25T22:57:38.385Z,9.00
2019-05-25T23:00:09.168Z,9.00
2019-05-25T23:02:38.644Z,8.90
2019-05-25T23:05:08.186Z,8.90
2019-05-25T23:07:37.484Z,8.90
2019-05-25T23:10:10.331Z,8.80
2019-05-25T23:12:39.689Z,8.80
2019-05-25T23:15:09.644Z,8.80
2019-05-25T23:17:39.215Z,8.70
2019-05-25T23:20:08.679Z,8.70
2019-05-25T23:22:37.976Z,8.70
2019-05-25T23:25:07.555Z,8.70
2019-05-25T23:27:36.933Z,8.60
2019-05-25T23:30:08.477Z,8.60
2019-05-25T23:32:38.655Z,8.60
2019-05-25T23:35:08.120Z,8.50
2019-05-25T23:37:38.780Z,8.50
2019-05-25T23:40:08.656Z,8.50
2019-05-25T23:42:39.116Z,8.50
2019-05-25T23:45:09.320Z,8.40
2019-05-25T23:47:38.629Z,8.40
2019-05-25T23:50:08.577Z,8.40
2019-05-25T23:52:38.444Z,8.30
2019-05-25T23:55:08.812Z,8.30
2019-05-25T23:57:38.107Z,8.30
